Thetys II — FGTO — position and weather

sailwx.info

Track history (hours):
 
Tides and Currents Weather Stations Pressure Air Temp Water Temp Dewpoint Dewpoint Depression Visibility Wind Speed Wind Dir Waves Ship Positions

Oceanographic research ship Thetys II (France)

Last reported at 2017-Sep-24 10:13 UTC. Time now 2017-Sep-25 11:51 UTC.
Position N 43°33' E 007°26'.

Length 25 m; beam 8 m.

Type: Ship. MMSI: 227212000.

Date/timePositionNaut miles runAvg speedWind from/ knotsBaromVisibWave heightAir tempDewpointWater temp
2017-Sep-24 10:13N 43°33' E 007°26'0 0.6
2017-Sep-24 09:56N 43°33' E 007°26'1 2.4
2017-Sep-24 09:30N 43°34' E 007°25'2 2.6
2017-Sep-24 08:42N 43°35' E 007°24'  
2017-Sep-22 00:33N 43°13' E 006°46'1 7.0
2017-Sep-22 00:20N 43°12' E 006°45'2 7.1
2017-Sep-22 00:00N 43°10' E 006°42'4 7.4
2017-Sep-21 23:30N 43°08' E 006°38'30 7.1
2017-Sep-21 19:19N 43°05' E 005°58'2 6.3
2017-Sep-21 19:00N 43°05' E 005°55'2 3.8
2017-Sep-21 18:30N 43°06' E 005°53'0 0.0
2017-Sep-21 17:59N 43°06' E 005°53'0 0.0
2017-Sep-21 17:29N 43°06' E 005°53'0 0.0
2017-Sep-21 16:59N 43°06' E 005°53'0 0.0
2017-Sep-21 16:26N 43°06' E 005°53'0 0.0
2017-Sep-21 15:59N 43°06' E 005°53'0 0.0
2017-Sep-21 15:29N 43°06' E 005°53'0 0.0
2017-Sep-21 14:59N 43°06' E 005°53'0 0.0
2017-Sep-21 14:29N 43°06' E 005°53'0 0.0
2017-Sep-21 13:59N 43°06' E 005°53'0 0.0
2017-Sep-21 13:29N 43°06' E 005°53'0 0.0
2017-Sep-21 12:59N 43°06' E 005°53'0 0.0
2017-Sep-21 12:29N 43°06' E 005°53'0 0.0
2017-Sep-21 11:59N 43°06' E 005°53'0 0.0
2017-Sep-21 11:29N 43°06' E 005°53'0 0.0
2017-Sep-21 10:59N 43°06' E 005°53'0 0.0
2017-Sep-21 10:29N 43°06' E 005°53'0 0.0
2017-Sep-21 09:59N 43°06' E 005°53'0 0.0
2017-Sep-21 09:29N 43°06' E 005°53'0 0.0
2017-Sep-21 08:59N 43°06' E 005°53'0 0.0
2017-Sep-21 08:29N 43°06' E 005°53'0 0.0
2017-Sep-21 07:59N 43°06' E 005°53'0 0.0
2017-Sep-21 07:29N 43°06' E 005°53'0 0.0
2017-Sep-21 06:59N 43°06' E 005°53'0 0.0
2017-Sep-21 06:29N 43°06' E 005°53'0 0.0
2017-Sep-21 05:59N 43°06' E 005°53'0 0.0
2017-Sep-21 05:29N 43°06' E 005°53'0 0.0
2017-Sep-21 04:59N 43°06' E 005°53'0 0.0
2017-Sep-21 04:29N 43°06' E 005°53'0 0.0
2017-Sep-21 03:59N 43°06' E 005°53'0 0.0
2017-Sep-21 03:29N 43°06' E 005°53'0 0.0
2017-Sep-21 02:59N 43°06' E 005°53'0 0.0
2017-Sep-21 02:29N 43°06' E 005°53'0 0.0
2017-Sep-21 01:59N 43°06' E 005°53'0 0.0
2017-Sep-21 01:29N 43°06' E 005°53'0 0.0
2017-Sep-21 00:59N 43°06' E 005°53'0 0.0
2017-Sep-21 00:29N 43°06' E 005°53'0 0.0
2017-Sep-20 23:59N 43°06' E 005°53'0 0.0
2017-Sep-20 23:29N 43°06' E 005°53'0 0.0
2017-Sep-20 22:59N 43°06' E 005°53'0 0.0
2017-Sep-20 22:29N 43°06' E 005°53'0 0.0
2017-Sep-20 21:59N 43°06' E 005°53'0 0.0
2017-Sep-20 21:29N 43°06' E 005°53'0 0.0
2017-Sep-20 20:59N 43°06' E 005°53'0 0.0
2017-Sep-20 20:29N 43°06' E 005°53'0 0.0
2017-Sep-20 19:59N 43°06' E 005°53'0 0.0
2017-Sep-20 19:29N 43°06' E 005°53'0 0.0
2017-Sep-20 18:59N 43°06' E 005°53'0 0.0
2017-Sep-20 18:29N 43°06' E 005°53'0 0.0
2017-Sep-20 17:59N 43°06' E 005°53'0 0.0
2017-Sep-20 17:29N 43°06' E 005°53'0 0.0
2017-Sep-20 16:59N 43°06' E 005°53'0 0.0
2017-Sep-20 16:29N 43°06' E 005°53'0 0.0
2017-Sep-20 15:59N 43°06' E 005°53'0 0.0
2017-Sep-20 15:29N 43°06' E 005°53'0 0.0
2017-Sep-20 14:59N 43°06' E 005°53'0 0.0
2017-Sep-20 13:59N 43°06' E 005°53'0 0.0
2017-Sep-20 13:29N 43°06' E 005°53'0 0.0
2017-Sep-20 12:59N 43°06' E 005°53'0 0.0
2017-Sep-20 12:29N 43°06' E 005°53'0 0.0
2017-Sep-20 11:59N 43°06' E 005°53'0 0.0
2017-Sep-20 11:29N 43°06' E 005°53'0 0.0
2017-Sep-20 10:59N 43°06' E 005°53'9 0.2
2017-Sep-18 16:20N 43°06' E 005°40'410.8
2017-Sep-18 15:57N 43°08' E 005°35'5 2.9
2017-Sep-18 14:21N 43°06' E 005°30'9 2.4
2017-Sep-18 10:32N 43°09' E 005°18'0 3.2
2017-Sep-18 10:29N 43°09' E 005°18'1 2.3
2017-Sep-18 09:55N 43°10' E 005°18'1 1.3
2017-Sep-18 09:29N 43°10' E 005°19'4 4.9
2017-Sep-18 08:46N 43°09' E 005°23'0 0.2
2017-Sep-18 08:23N 43°09' E 005°23'2 4.9
2017-Sep-18 08:00N 43°07' E 005°23'2 3.3
2017-Sep-18 07:19N 43°06' E 005°26'1 1.8
2017-Sep-18 07:00N 43°06' E 005°27'4 0.3
2017-Sep-17 16:38N 43°09' E 005°30'2 0.8
2017-Sep-17 13:34N 43°08' E 005°27'0 0.2
2017-Sep-17 13:29N 43°08' E 005°27'2 4.7
2017-Sep-17 13:00N 43°06' E 005°27'1 0.2
2017-Sep-17 08:10N 43°07' E 005°27'1 3.9
2017-Sep-17 08:00N 43°08' E 005°26'2 4.5
2017-Sep-17 07:29N 43°08' E 005°29'2 4.7
2017-Sep-17 06:58N 43°08' E 005°33'4 0.3
2017-Sep-16 17:00N 43°09' E 005°37'2 4.7
2017-Sep-16 16:31N 43°09' E 005°34'2 3.0
2017-Sep-16 16:01N 43°09' E 005°32'3 5.0
2017-Sep-16 15:30N 43°09' E 005°29'2 5.0
2017-Sep-16 15:01N 43°09' E 005°25'1 2.3
2017-Sep-16 14:30N 43°10' E 005°24'1 2.6
2017-Sep-16 14:00N 43°09' E 005°23'2 4.8
2017-Sep-16 13:31N 43°07' E 005°23'2 5.0
2017-Sep-16 13:00N 43°04' E 005°23'2 5.0
2017-Sep-16 12:30N 43°02' E 005°23'2 3.5
2017-Sep-16 12:00N 43°00' E 005°25'1 1.0
2017-Sep-16 11:18N 43°00' E 005°24'0 0.7
2017-Sep-16 11:00N 43°00' E 005°23'11 2.4
2017-Sep-16 06:30N 43°08' E 005°34'5 0.4
2017-Sep-15 17:14N 43°07' E 005°28'0 1.2
2017-Sep-15 17:00N 43°07' E 005°28'2 4.5
2017-Sep-15 16:30N 43°09' E 005°28'1 2.2
2017-Sep-15 15:59N 43°09' E 005°30'3 3.7
2017-Sep-15 15:05N 43°06' E 005°29'3 0.4
2017-Sep-15 07:27N 43°09' E 005°28'11 0.7
2017-Sep-14 15:00N 43°06' E 005°42'  
Track history (hours):
 
Tides and Currents Weather Stations Pressure Air Temp Water Temp Dewpoint Dewpoint Depression Visibility Wind Speed Wind Dir Waves Ship Positions

Oceanographic research ship Thetys II (France)

Last reported at 2017-Sep-24 10:13 UTC. Time now 2017-Sep-25 11:51 UTC.
Position N 43°33' E 007°26'.

Length 25 m; beam 8 m.

Type: Ship. MMSI: 227212000.

Date/timePositionNaut miles runAvg speedWind from/ knotsBaromVisibWave heightAir tempDewpointWater temp
2017-Sep-24 10:13N 43°33' E 007°26'0 0.6
2017-Sep-24 09:56N 43°33' E 007°26'1 2.4
2017-Sep-24 09:30N 43°34' E 007°25'2 2.6
2017-Sep-24 08:42N 43°35' E 007°24'  
2017-Sep-22 00:33N 43°13' E 006°46'1 7.0
2017-Sep-22 00:20N 43°12' E 006°45'2 7.1
2017-Sep-22 00:00N 43°10' E 006°42'4 7.4
2017-Sep-21 23:30N 43°08' E 006°38'30 7.1
2017-Sep-21 19:19N 43°05' E 005°58'2 6.3
2017-Sep-21 19:00N 43°05' E 005°55'2 3.8
2017-Sep-21 18:30N 43°06' E 005°53'0 0.0
2017-Sep-21 17:59N 43°06' E 005°53'0 0.0
2017-Sep-21 17:29N 43°06' E 005°53'0 0.0
2017-Sep-21 16:59N 43°06' E 005°53'0 0.0
2017-Sep-21 16:26N 43°06' E 005°53'0 0.0
2017-Sep-21 15:59N 43°06' E 005°53'0 0.0
2017-Sep-21 15:29N 43°06' E 005°53'0 0.0
2017-Sep-21 14:59N 43°06' E 005°53'0 0.0
2017-Sep-21 14:29N 43°06' E 005°53'0 0.0
2017-Sep-21 13:59N 43°06' E 005°53'0 0.0
2017-Sep-21 13:29N 43°06' E 005°53'0 0.0
2017-Sep-21 12:59N 43°06' E 005°53'0 0.0
2017-Sep-21 12:29N 43°06' E 005°53'0 0.0
2017-Sep-21 11:59N 43°06' E 005°53'0 0.0
2017-Sep-21 11:29N 43°06' E 005°53'0 0.0
2017-Sep-21 10:59N 43°06' E 005°53'0 0.0
2017-Sep-21 10:29N 43°06' E 005°53'0 0.0
2017-Sep-21 09:59N 43°06' E 005°53'0 0.0
2017-Sep-21 09:29N 43°06' E 005°53'0 0.0
2017-Sep-21 08:59N 43°06' E 005°53'0 0.0
2017-Sep-21 08:29N 43°06' E 005°53'0 0.0
2017-Sep-21 07:59N 43°06' E 005°53'0 0.0
2017-Sep-21 07:29N 43°06' E 005°53'0 0.0
2017-Sep-21 06:59N 43°06' E 005°53'0 0.0
2017-Sep-21 06:29N 43°06' E 005°53'0 0.0
2017-Sep-21 05:59N 43°06' E 005°53'0 0.0
2017-Sep-21 05:29N 43°06' E 005°53'0 0.0
2017-Sep-21 04:59N 43°06' E 005°53'0 0.0
2017-Sep-21 04:29N 43°06' E 005°53'0 0.0
2017-Sep-21 03:59N 43°06' E 005°53'0 0.0
2017-Sep-21 03:29N 43°06' E 005°53'0 0.0
2017-Sep-21 02:59N 43°06' E 005°53'0 0.0
2017-Sep-21 02:29N 43°06' E 005°53'0 0.0
2017-Sep-21 01:59N 43°06' E 005°53'0 0.0
2017-Sep-21 01:29N 43°06' E 005°53'0 0.0
2017-Sep-21 00:59N 43°06' E 005°53'0 0.0
2017-Sep-21 00:29N 43°06' E 005°53'0 0.0
2017-Sep-20 23:59N 43°06' E 005°53'0 0.0
2017-Sep-20 23:29N 43°06' E 005°53'0 0.0
2017-Sep-20 22:59N 43°06' E 005°53'0 0.0
2017-Sep-20 22:29N 43°06' E 005°53'0 0.0
2017-Sep-20 21:59N 43°06' E 005°53'0 0.0
2017-Sep-20 21:29N 43°06' E 005°53'0 0.0
2017-Sep-20 20:59N 43°06' E 005°53'0 0.0
2017-Sep-20 20:29N 43°06' E 005°53'0 0.0
2017-Sep-20 19:59N 43°06' E 005°53'0 0.0
2017-Sep-20 19:29N 43°06' E 005°53'0 0.0
2017-Sep-20 18:59N 43°06' E 005°53'0 0.0
2017-Sep-20 18:29N 43°06' E 005°53'0 0.0
2017-Sep-20 17:59N 43°06' E 005°53'0 0.0
2017-Sep-20 17:29N 43°06' E 005°53'0 0.0
2017-Sep-20 16:59N 43°06' E 005°53'0 0.0
2017-Sep-20 16:29N 43°06' E 005°53'0 0.0
2017-Sep-20 15:59N 43°06' E 005°53'0 0.0
2017-Sep-20 15:29N 43°06' E 005°53'0 0.0
2017-Sep-20 14:59N 43°06' E 005°53'0 0.0
2017-Sep-20 13:59N 43°06' E 005°53'0 0.0
2017-Sep-20 13:29N 43°06' E 005°53'0 0.0
2017-Sep-20 12:59N 43°06' E 005°53'0 0.0
2017-Sep-20 12:29N 43°06' E 005°53'0 0.0
2017-Sep-20 11:59N 43°06' E 005°53'0 0.0
2017-Sep-20 11:29N 43°06' E 005°53'0 0.0
2017-Sep-20 10:59N 43°06' E 005°53'9 0.2
2017-Sep-18 16:20N 43°06' E 005°40'410.8
2017-Sep-18 15:57N 43°08' E 005°35'5 2.9
2017-Sep-18 14:21N 43°06' E 005°30'9 2.4
2017-Sep-18 10:32N 43°09' E 005°18'0 3.2
2017-Sep-18 10:29N 43°09' E 005°18'1 2.3
2017-Sep-18 09:55N 43°10' E 005°18'1 1.3
2017-Sep-18 09:29N 43°10' E 005°19'4 4.9
2017-Sep-18 08:46N 43°09' E 005°23'0 0.2
2017-Sep-18 08:23N 43°09' E 005°23'2 4.9
2017-Sep-18 08:00N 43°07' E 005°23'2 3.3
2017-Sep-18 07:19N 43°06' E 005°26'1 1.8
2017-Sep-18 07:00N 43°06' E 005°27'4 0.3
2017-Sep-17 16:38N 43°09' E 005°30'2 0.8
2017-Sep-17 13:34N 43°08' E 005°27'0 0.2
2017-Sep-17 13:29N 43°08' E 005°27'2 4.7
2017-Sep-17 13:00N 43°06' E 005°27'1 0.2
2017-Sep-17 08:10N 43°07' E 005°27'1 3.9
2017-Sep-17 08:00N 43°08' E 005°26'2 4.5
2017-Sep-17 07:29N 43°08' E 005°29'2 4.7
2017-Sep-17 06:58N 43°08' E 005°33'4 0.3
2017-Sep-16 17:00N 43°09' E 005°37'2 4.7
2017-Sep-16 16:31N 43°09' E 005°34'2 3.0
2017-Sep-16 16:01N 43°09' E 005°32'3 5.0
2017-Sep-16 15:30N 43°09' E 005°29'2 5.0
2017-Sep-16 15:01N 43°09' E 005°25'1 2.3
2017-Sep-16 14:30N 43°10' E 005°24'1 2.6
2017-Sep-16 14:00N 43°09' E 005°23'2 4.8
2017-Sep-16 13:31N 43°07' E 005°23'2 5.0
2017-Sep-16 13:00N 43°04' E 005°23'2 5.0
2017-Sep-16 12:30N 43°02' E 005°23'2 3.5
2017-Sep-16 12:00N 43°00' E 005°25'1 1.0
2017-Sep-16 11:18N 43°00' E 005°24'0 0.7
2017-Sep-16 11:00N 43°00' E 005°23'11 2.4
2017-Sep-16 06:30N 43°08' E 005°34'5 0.4
2017-Sep-15 17:14N 43°07' E 005°28'0 1.2
2017-Sep-15 17:00N 43°07' E 005°28'2 4.5
2017-Sep-15 16:30N 43°09' E 005°28'1 2.2
2017-Sep-15 15:59N 43°09' E 005°30'3 3.7
2017-Sep-15 15:05N 43°06' E 005°29'3 0.4
2017-Sep-15 07:27N 43°09' E 005°28'11 0.7
2017-Sep-14 15:00N 43°06' E 005°42'  

Dump ship's entire track history